Latest Weather Observations for Double Island Point

IDQ60801

Issued at 10:35 am EST Sunday 20 April 2014 (issued every 30 minutes, with the page automatically refreshed every 10 minutes)

About weather observations | Map of weather stations | Latest weather observations for QLD | Other Formats
Station Details ID: 040068 Name: DOUBLE ISLAND POINT LIGHTHOUSE Lat: -25.93 Lon: 153.19 Height: 95.64 m
Data from the previous 72 hours. | See also: Recent months at Double Island Point
Date/Time
EST
Temp
°C
App
Temp
°C
Dew
Point
Rel
Hum
%
Delta-T
°C
Wind Press
QNH
hPa
Press
MSL
hPa
Rain
since 9 am
mm
Dir
 
Spd
km/h
Gust
km/h
Spd
kts
Gust
kts
20/10:30am 26.2 26.2 15.3 51 6.6 ENE 9 11 5 6 1018.2 - 0.0
20/10:00am 26.9 27.4 15.6 50 6.9 NNE 7 9 4 5 1018.3 - 0.0
20/09:30am 26.4 26.9 15.1 49 6.9 N 6 7 3 4 1018.2 - 0.0
20/09:00am 25.6 26.1 15.0 52 6.4 N 6 7 3 4 1018.3 1018.0 0.0
20/08:30am 24.4 24.7 15.9 59 5.2 W 9 28 5 15 1018.0 - 0.0
20/08:00am 23.8 25.4 15.0 57 5.3 CALM 0 0 0 0 1017.9 - 0.0
20/07:30am 22.5 22.3 15.6 65 4.1 NW 11 13 6 7 1017.5 - 0.0
20/07:00am 21.7 21.2 13.9 61 4.5 NW 9 9 5 5 1017.2 - 0.0
20/06:30am 21.4 22.5 13.6 61 4.5 CALM 0 0 0 0 1017.1 - 0.0
20/06:00am 21.3 22.4 13.5 61 4.5 S 0 0 0 0 1016.8 1016.5 0.0
20/05:30am 21.3 22.4 13.5 61 4.5 CALM 0 0 0 0 1016.4 - 0.0
20/05:00am 21.6 22.8 13.8 61 4.5 CALM 0 0 0 0 1016.1 - 0.0
20/04:30am 21.1 21.4 13.5 62 4.4 S 4 7 2 4 1015.7 - 0.0
20/04:00am 21.1 21.1 13.5 62 4.4 SSW 6 7 3 4 1015.6 - 0.0
20/03:30am 21.2 20.4 12.9 59 4.7 S 9 11 5 6 1015.5 - 0.0
20/03:00am 21.0 20.3 13.2 61 4.5 S 9 13 5 7 1015.6 1015.2 0.0
20/02:30am 21.2 20.9 13.4 61 4.5 SW 7 9 4 5 1015.7 - 0.0
20/02:00am 21.3 20.9 14.0 63 4.3 W 9 13 5 7 1015.6 - 0.0
20/01:30am 21.6 19.3 14.7 65 4.1 NW 20 22 11 12 1015.4 - 0.0
20/01:00am 21.5 19.2 14.6 65 4.1 NW 20 22 11 12 1015.6 - 0.0
20/12:30am 21.4 19.3 14.8 66 3.9 NW 19 20 10 11 1015.8 - 0.0
20/12:00am 22.1 21.3 15.2 65 4.1 NNW 13 20 7 11 1016.1 1015.8 0.0
 
Date/Time
EST
Temp
°C
App
Temp
°C
Dew
Point
Rel
Hum
%
Delta-T
°C
Wind Press
QNH
hPa
Press
MSL
hPa
Rain
since 9 am
mm
Dir
 
Spd
km/h
Gust
km/h
Spd
kts
Gust
kts
19/11:30pm 22.0 21.7 13.4 58 5.0 N 7 11 4 6 1016.2 - 0.0
19/11:00pm 22.0 21.5 12.8 56 5.3 N 7 11 4 6 1016.4 - 0.0
19/10:30pm 22.2 21.1 11.9 52 5.8 N 9 15 5 8 1016.4 - 0.0
19/10:00pm 22.5 20.2 11.9 51 6.0 N 15 19 8 10 1016.5 - 0.0
19/09:30pm 22.4 19.7 11.8 51 6.0 NNE 17 20 9 11 1016.4 - 0.0
19/09:00pm 22.4 21.3 12.1 52 5.8 NE 9 15 5 8 1016.4 1016.1 0.0
19/08:30pm 22.4 20.7 11.2 49 6.2 NE 11 15 6 8 1016.2 - 0.0
19/08:00pm 22.7 21.1 12.9 54 5.6 ENE 13 19 7 10 1016.0 - 0.0
19/07:30pm 22.7 20.7 12.6 53 5.8 ENE 15 19 8 10 1015.7 - 0.0
19/07:00pm 22.7 20.6 12.3 52 5.9 ENE 15 19 8 10 1015.4 - 0.0
19/06:30pm 22.7 19.8 11.1 48 6.5 E 17 19 9 10 1014.9 - 0.0
19/06:00pm 22.5 20.1 11.3 49 6.3 E 15 19 8 10 1014.7 1014.3 0.0
19/05:30pm 22.7 19.7 10.5 46 6.7 E 17 19 9 10 1014.4 - 0.0
19/05:00pm 23.3 20.2 11.7 48 6.6 ESE 19 22 10 12 1014.2 - 0.0
19/04:30pm 23.5 20.2 10.9 45 7.0 ESE 19 22 10 12 1013.9 - 0.0
19/04:00pm 24.0 20.7 11.7 46 7.0 ESE 20 24 11 13 1013.6 - 0.0
19/03:30pm 24.7 21.3 11.3 43 7.6 ESE 20 24 11 13 1013.7 - 0.0
19/03:00pm 25.5 23.1 11.3 41 8.1 ESE 15 19 8 10 1013.8 1013.4 0.0
19/02:30pm 25.8 23.0 10.0 37 8.8 E 15 19 8 10 1013.8 - 0.0
19/02:00pm 26.4 23.4 7.9 31 9.9 E 13 17 7 9 1013.9 - 0.0
19/01:30pm 26.7 23.7 9.1 33 9.7 ESE 15 20 8 11 1014.1 - 0.0
19/01:00pm 26.3 22.8 8.8 33 9.6 ESE 17 22 9 12 1014.5 - 0.0
19/12:30pm 25.9 21.1 8.8 34 9.3 SSE 24 30 13 16 1014.8 - 0.0
19/12:00pm 26.0 22.3 8.0 32 9.7 SSE 17 22 9 12 1015.3 1014.9 0.0
19/11:30am 27.7 26.3 9.5 32 10.1 WNW 7 15 4 8 1015.8 - 0.0
19/11:00am 26.4 23.6 6.9 29 10.3 W 11 17 6 9 1016.2 - 0.0
19/10:30am 26.2 24.2 8.7 33 9.5 WSW 9 13 5 7 1016.6 - 0.0
19/10:00am 25.4 24.0 10.8 40 8.2 SW 9 15 5 8 1016.9 - 0.0
19/09:30am 24.6 23.2 10.8 42 7.7 W 9 13 5 7 1017.0 - 0.0
19/09:00am 24.6 23.1 10.5 41 7.8 S 9 17 5 9 1017.2 1016.9 0.0
19/08:30am 23.7 21.6 9.7 41 7.7 S 11 17 6 9 1017.2 - 0.0
19/08:00am 22.5 20.2 11.6 50 6.1 SW 15 19 8 10 1016.9 - 0.0
19/07:30am 21.1 19.7 16.5 75 2.8 W 19 20 10 11 1016.7 - 0.0
19/07:00am 20.6 19.0 16.4 77 2.5 WSW 20 24 11 13 1016.5 - 0.0
19/06:30am 20.3 18.6 17.3 83 1.8 W 22 26 12 14 1016.3 - 0.0
19/06:00am 20.2 19.8 17.2 83 1.8 WNW 15 19 8 10 1016.2 1015.9 0.0
19/05:30am 20.6 19.5 17.2 81 2.1 WNW 19 22 10 12 1015.9 - 0.0
19/05:00am 20.7 20.1 17.5 82 2.0 WNW 17 19 9 10 1015.8 - 0.0
19/04:30am 20.8 20.6 17.6 82 2.0 NW 15 17 8 9 1015.7 - 0.0
19/04:00am 20.9 20.7 17.5 81 2.1 NW 15 19 8 10 1015.7 - 0.0
19/03:30am 21.2 21.0 17.6 80 2.2 NW 15 19 8 10 1015.6 - 0.0
19/03:00am 21.3 20.7 17.5 79 2.3 NW 17 20 9 11 1015.6 1015.2 0.0
19/02:30am 21.3 20.6 17.3 78 2.5 NW 17 20 9 11 1015.7 - 0.0
19/02:00am 21.4 20.1 17.2 77 2.6 NW 20 24 11 13 1015.8 - 0.0
19/01:30am 21.3 20.2 17.3 78 2.5 NW 19 20 10 11 1015.9 - 0.0
19/01:00am 21.4 20.9 17.8 80 2.2 NW 17 20 9 11 1016.1 - 0.0
19/12:30am 21.6 20.6 17.6 78 2.5 NW 19 22 10 12 1016.1 - 0.0
19/12:00am 21.8 20.6 17.6 77 2.6 NW 20 24 11 13 1016.2 1015.9 0.0
 
Date/Time
EST
Temp
°C
App
Temp
°C
Dew
Point
Rel
Hum
%
Delta-T
°C
Wind Press
QNH
hPa
Press
MSL
hPa
Rain
since 9 am
mm
Dir
 
Spd
km/h
Gust
km/h
Spd
kts
Gust
kts
18/11:30pm 21.9 22.1 16.8 73 3.1 N 11 17 6 9 1016.1 - 0.0
18/11:00pm 22.3 22.5 17.7 75 2.9 N 13 22 7 12 1016.2 - 0.0
18/10:30pm 22.2 22.2 17.1 73 3.1 N 13 22 7 12 1016.3 - 0.0
18/10:00pm 22.3 21.9 17.2 73 3.1 N 15 26 8 14 1016.4 - 0.0
18/09:30pm 22.3 20.5 17.0 72 3.3 NNE 22 26 12 14 1016.4 - 0.0
18/09:00pm 22.2 20.8 16.5 70 3.5 NNE 19 22 10 12 1016.5 1016.2 0.0
18/08:30pm 22.0 21.3 16.5 71 3.4 NNE 15 20 8 11 1016.3 - 0.0
18/08:00pm 22.0 21.3 16.5 71 3.4 NNE 15 20 8 11 1016.3 - 0.0
18/07:30pm 22.2 22.1 16.9 72 3.3 NNE 13 20 7 11 1015.9 - 0.0
18/07:00pm 22.4 22.1 16.4 69 3.7 NE 13 19 7 10 1015.6 - 0.0
18/06:30pm 22.4 21.6 16.2 68 3.8 NE 15 19 8 10 1015.2 - 0.0
18/06:00pm 22.5 21.3 16.1 67 3.9 ENE 17 19 9 10 1014.9 1014.5 0.0
18/05:30pm 22.6 21.1 16.2 67 3.9 E 19 20 10 11 1014.5 - 0.0
18/05:00pm 23.3 22.0 16.8 67 4.0 E 19 22 10 12 1014.3 - 0.0
18/04:30pm 23.5 22.2 16.8 66 4.1 E 19 22 10 12 1014.0 - 0.0
18/04:00pm 23.8 22.9 16.8 65 4.3 E 17 20 9 11 1013.8 - 0.0
18/03:30pm 23.7 22.4 16.7 65 4.3 E 19 22 10 12 1013.5 - 0.0
18/03:00pm 24.1 22.9 17.1 65 4.3 ESE 19 24 10 13 1013.5 1013.1 0.0
18/02:30pm 24.5 24.0 17.7 66 4.3 E 17 20 9 11 1013.7 - 0.0
18/02:00pm 24.4 23.7 17.4 65 4.4 ESE 17 22 9 12 1014.0 - 0.0
18/01:30pm 24.6 23.8 18.1 67 4.1 SE 19 22 10 12 1014.1 - 0.0
18/01:00pm 24.7 24.6 17.9 66 4.3 ESE 15 17 8 9 1014.4 - 0.0
18/12:30pm 24.3 23.9 17.1 64 4.5 SE 15 19 8 10 1014.8 - 0.0
18/12:00pm 25.8 26.0 17.7 61 5.1 ESE 13 17 7 9 1015.1 1014.7 0.0
18/11:30am 26.7 27.1 17.2 56 6.0 ESE 11 15 6 8 1015.6 - 0.0
18/11:00am 27.2 27.6 18.2 58 5.7 NNW 13 19 7 10 1016.1 - 0.0
18/10:30am 25.3 24.6 16.4 57 5.5 NW 15 19 8 10 1016.4 - 0.0
18/10:00am 24.3 23.9 17.1 64 4.5 WNW 15 22 8 12 1016.7 - 0.0
18/09:30am 23.8 23.4 17.1 66 4.2 NW 15 19 8 10 1017.0 - 0.0
18/09:00am 23.3 22.8 16.8 67 4.0 WNW 15 20 8 11 1016.9 1016.6 0.0
18/08:30am 22.9 23.1 16.7 68 3.8 WNW 11 17 6 9 1016.8 - 0.0
18/08:00am 22.1 21.9 16.6 71 3.4 WNW 13 15 7 8 1016.7 - 0.0
18/07:30am 21.7 22.1 16.4 72 3.2 WNW 9 13 5 7 1016.8 - 0.0
18/07:00am 21.2 21.6 16.4 74 2.9 WNW 9 11 5 6 1016.6 - 0.0
18/06:30am 20.9 22.0 16.5 76 2.7 NW 6 7 3 4 1016.5 - 0.0
18/06:00am 20.9 21.3 16.3 75 2.8 WNW 9 13 5 7 1016.3 1016.0 0.0
18/05:30am 21.0 21.4 16.4 75 2.8 NW 9 11 5 6 1016.3 - 0.0
18/05:00am 21.1 23.2 16.3 74 2.9 CALM 0 0 0 0 1016.3 - 0.0
18/04:30am 20.9 21.8 16.1 74 2.9 W 6 9 3 5 1016.2 - 0.0
18/04:00am 21.0 20.8 15.8 72 3.1 WNW 11 13 6 7 1016.0 - 0.0
18/03:30am 21.1 21.0 15.9 72 3.1 W 11 13 6 7 1015.9 - 0.0
18/03:00am 21.2 21.4 15.7 71 3.3 W 9 13 5 7 1015.9 1015.5 0.0
18/02:30am 21.4 20.9 15.9 71 3.3 W 13 13 7 7 1016.1 - 0.0
18/02:00am 21.5 21.0 15.8 70 3.4 W 13 13 7 7 1016.2 - 0.0
18/01:30am 21.4 21.3 15.9 71 3.3 W 11 13 6 7 1016.5 - 0.0
18/01:00am 21.4 21.0 16.1 72 3.2 W 13 15 7 8 1016.7 - 0.0
18/12:30am 21.7 21.8 16.6 73 3.1 W 11 15 6 8 1017.0 - 0.0
18/12:00am 21.8 21.1 16.5 72 3.2 WNW 15 17 8 9 1017.0 1016.7 0.0
 
Date/Time
EST
Temp
°C
App
Temp
°C
Dew
Point
Rel
Hum
%
Delta-T
°C
Wind Press
QNH
hPa
Press
MSL
hPa
Rain
since 9 am
mm
Dir
 
Spd
km/h
Gust
km/h
Spd
kts
Gust
kts
17/11:30pm 22.0 23.2 15.8 68 3.7 N 4 7 2 4 1017.3 - 0.0
17/11:00pm 21.8 22.1 15.9 69 3.6 NNE 9 15 5 8 1017.4 - 0.0
17/10:30pm 21.8 21.9 15.6 68 3.7 NNE 9 13 5 7 1017.4 - 0.0
17/10:00pm 21.9 21.7 15.7 68 3.7 N 11 13 6 7 1017.5 - 0.0
17/09:30pm 22.0 22.5 15.6 67 3.8 NE 7 11 4 6 1017.6 - 0.0
17/09:00pm 22.2 21.8 15.3 65 4.1 ENE 11 13 6 7 1017.5 1017.2 0.0
17/08:30pm 22.2 22.2 15.3 65 4.1 ENE 9 13 5 7 1017.3 - 0.0
17/08:00pm 22.2 21.2 15.5 66 4.0 E 15 17 8 9 1017.1 - 0.0
17/07:30pm 22.1 21.1 15.5 66 4.0 E 15 20 8 11 1016.7 - 0.0
17/07:00pm 22.0 20.8 15.1 65 4.1 E 15 19 8 10 1016.3 - 0.0
17/06:30pm 22.0 21.2 15.1 65 4.1 E 13 19 7 10 1016.0 - 0.0
17/06:00pm 22.1 20.8 14.7 63 4.4 E 15 19 8 10 1015.8 1015.4 0.0
17/05:30pm 22.2 20.9 14.8 63 4.4 ESE 15 19 8 10 1015.6 - 0.0
17/05:00pm 22.8 21.0 14.4 59 5.0 ESE 17 20 9 11 1015.5 - 0.0
17/04:30pm 22.8 20.8 14.9 61 4.7 ESE 19 24 10 13 1015.2 - 0.0
17/04:00pm 23.3 21.0 14.6 58 5.2 ESE 20 26 11 14 1014.9 - 0.0
17/03:30pm 23.6 21.1 14.0 55 5.7 ESE 20 26 11 14 1015.0 - 0.0
17/03:00pm 24.0 21.4 15.0 57 5.4 ESE 22 26 12 14 1014.8 1014.4 0.0
17/02:30pm 24.6 22.7 14.1 52 6.2 E 17 20 9 11 1015.1 - 0.0
17/02:00pm 24.5 22.2 14.0 52 6.2 E 19 22 10 12 1015.1 - 0.0
17/01:30pm 24.4 22.2 14.5 54 5.9 ESE 19 22 10 12 1015.4 - 0.0
17/01:00pm 24.6 23.2 15.5 57 5.5 ESE 17 20 9 11 1015.9 - 0.0
17/12:30pm 24.1 22.3 15.6 59 5.1 SE 19 22 10 12 1016.3 - 0.0
17/12:00pm 23.9 22.1 15.9 61 4.9 SSE 20 22 11 12 1016.7 1016.4 0.0
17/11:30am 23.9 22.2 16.2 62 4.7 SSE 20 24 11 13 1017.2 - 0.0
17/11:00am 23.6 22.0 16.1 62 4.6 SSE 19 24 10 13 1017.6 - 0.0

Other Formats:

Comma delimited format used in spreadsheet applications
http://www.bom.gov.au/fwo/IDQ60801/IDQ60801.94584.axf

JavaScript Object Notation format (JSON) in row-major order
http://www.bom.gov.au/fwo/IDQ60801/IDQ60801.94584.json